createdAt,value
2018-12-21T00:00:25.455Z,9.13
2018-12-21T00:00:51.572Z,9.16
2018-12-21T00:01:17.679Z,9.21
2018-12-21T00:01:43.785Z,9.25
2018-12-21T00:02:09.916Z,9.25
2018-12-21T00:02:36.028Z,9.21
2018-12-21T00:03:02.136Z,9.21
2018-12-21T00:03:28.237Z,9.21
2018-12-21T00:03:54.395Z,9.21
2018-12-21T00:04:20.518Z,9.23
2018-12-21T00:04:46.609Z,9.11
2018-12-21T00:05:12.716Z,9.16
2018-12-21T00:05:38.852Z,9.23
2018-12-21T00:06:04.979Z,9.11
2018-12-21T00:06:31.091Z,9.21
2018-12-21T00:06:57.240Z,9.25
2018-12-21T00:07:23.529Z,9.18
2018-12-21T00:07:49.637Z,9.25
2018-12-21T00:08:15.747Z,9.19
2018-12-21T00:08:41.916Z,9.1
2018-12-21T00:09:08.020Z,9.14
2018-12-21T00:09:34.129Z,9.06
2018-12-21T00:10:00.279Z,9.16
2018-12-21T00:10:26.381Z,9.03
2018-12-21T00:10:52.608Z,9.06
2018-12-21T00:11:18.790Z,9
2018-12-21T00:11:44.985Z,9.18
2018-12-21T00:12:11.092Z,9.1
2018-12-21T00:12:37.235Z,9.04
2018-12-21T00:13:03.385Z,9.03
2018-12-21T00:13:29.469Z,9.04
2018-12-21T00:13:55.580Z,9.08
2018-12-21T00:14:21.683Z,9.08
2018-12-21T00:14:47.816Z,9.04
2018-12-21T00:15:13.985Z,9.06
2018-12-21T00:15:40.093Z,9.1
2018-12-21T00:16:06.196Z,9.02
2018-12-21T00:16:32.309Z,9
2018-12-21T00:16:58.464Z,9.02
2018-12-21T00:17:24.610Z,9.03
2018-12-21T00:17:51.702Z,9.04
2018-12-21T00:18:17.808Z,9.04
2018-12-21T00:18:44.034Z,9.06
2018-12-21T00:19:10.139Z,9.02
2018-12-21T00:19:36.245Z,9.1
2018-12-21T00:20:02.374Z,9.11
2018-12-21T00:20:28.517Z,9.11
2018-12-21T00:20:54.654Z,9.16
2018-12-21T00:21:22.204Z,9.22
2018-12-21T00:21:48.276Z,9.22
2018-12-21T00:22:14.473Z,9.14
2018-12-21T00:22:40.577Z,9.19
2018-12-21T00:23:06.743Z,9.16
2018-12-21T00:23:32.916Z,9.22
2018-12-21T00:23:59.052Z,9.21
2018-12-21T00:24:25.163Z,9.13
2018-12-21T00:24:51.261Z,9.21
2018-12-21T00:25:17.364Z,9.18
2018-12-21T00:25:43.684Z,9.23
2018-12-21T00:26:09.736Z,9.25
2018-12-21T00:26:35.843Z,9.23
2018-12-21T00:27:01.953Z,9.19
2018-12-21T00:27:28.181Z,9.22
2018-12-21T00:27:54.556Z,9.22
2018-12-21T00:28:20.738Z,9.25
2018-12-21T00:28:46.845Z,9.25
2018-12-21T00:29:13.372Z,9.23
2018-12-21T00:29:39.501Z,9.21
2018-12-21T00:30:05.605Z,9.19
2018-12-21T00:30:31.718Z,9.21
2018-12-21T00:30:57.951Z,9.21
2018-12-21T00:31:24.142Z,9.22
2018-12-21T00:31:50.242Z,9.22
2018-12-21T00:32:16.349Z,9.18
2018-12-21T00:32:42.499Z,9.23
2018-12-21T00:33:08.616Z,9.23
2018-12-21T00:33:34.768Z,9.23
2018-12-21T00:34:00.887Z,9.25
2018-12-21T00:34:27.012Z,9.23
2018-12-21T00:34:53.152Z,9.25
2018-12-21T00:35:19.275Z,9.32
2018-12-21T00:35:45.414Z,9.23
2018-12-21T00:36:11.517Z,9.25
2018-12-21T00:36:37.626Z,9.23
2018-12-21T00:37:03.778Z,9.22
2018-12-21T00:37:29.878Z,9.26
2018-12-21T00:37:55.986Z,9.22
2018-12-21T00:38:22.090Z,9.21
2018-12-21T00:38:48.216Z,9.26
2018-12-21T00:39:14.368Z,9.29
2018-12-21T00:39:40.465Z,9.25
2018-12-21T00:40:06.579Z,9.31
2018-12-21T00:40:32.701Z,9.22
2018-12-21T00:40:58.815Z,9.29
2018-12-21T00:41:24.934Z,9.26
2018-12-21T00:41:51.042Z,9.32
2018-12-21T00:42:17.150Z,9.28
2018-12-21T00:42:43.298Z,9.32
2018-12-21T00:43:09.409Z,9.29
2018-12-21T00:43:35.537Z,9.29
2018-12-21T00:44:01.645Z,9.36
2018-12-21T00:44:27.760Z,9.22
2018-12-21T00:44:53.908Z,9.29
2018-12-21T00:45:20.042Z,9.25
2018-12-21T00:45:46.160Z,9.26
2018-12-21T00:46:12.292Z,9.28
2018-12-21T00:46:38.416Z,9.28
2018-12-21T00:47:04.593Z,9.39
2018-12-21T00:47:30.695Z,9.32
2018-12-21T00:47:56.802Z,9.32
2018-12-21T00:48:22.922Z,9.25
2018-12-21T00:48:49.054Z,9.32
2018-12-21T00:49:15.168Z,9.31
2018-12-21T00:49:41.279Z,9.26
2018-12-21T00:50:07.473Z,9.32
2018-12-21T00:50:33.643Z,9.34
2018-12-21T00:50:59.756Z,9.32
2018-12-21T00:51:30.108Z,9.36
2018-12-21T00:51:52.998Z,9.26
2018-12-21T00:52:19.096Z,9.31
2018-12-21T00:52:45.193Z,9.22
2018-12-21T00:53:11.300Z,9.29
2018-12-21T00:53:37.439Z,9.22
2018-12-21T00:54:03.565Z,9.29
2018-12-21T00:54:29.687Z,9.23
2018-12-21T00:54:55.823Z,9.34
2018-12-21T00:55:22.023Z,9.37
2018-12-21T00:55:48.114Z,9.25
2018-12-21T00:56:14.282Z,9.34
2018-12-21T00:56:40.392Z,9.25
2018-12-21T00:57:06.498Z,9.39
2018-12-21T00:57:32.601Z,9.4
2018-12-21T00:57:58.713Z,9.28
2018-12-21T00:58:24.841Z,9.31
2018-12-21T00:58:50.947Z,9.39
2018-12-21T00:59:17.109Z,9.36
2018-12-21T00:59:43.243Z,9.39
2018-12-21T01:00:09.352Z,9.29
2018-12-21T01:00:35.541Z,9.39
2018-12-21T01:01:01.724Z,9.29
2018-12-21T01:01:27.822Z,9.26
2018-12-21T01:01:53.949Z,9.28
2018-12-21T01:02:20.056Z,9.26
2018-12-21T01:02:46.162Z,9.28
2018-12-21T01:03:12.277Z,9.31
2018-12-21T01:03:38.377Z,9.31
2018-12-21T01:04:04.487Z,9.36
2018-12-21T01:04:30.587Z,9.37
2018-12-21T01:04:56.694Z,9.32
2018-12-21T01:05:22.820Z,9.32
2018-12-21T01:05:48.935Z,9.39
2018-12-21T01:06:15.058Z,9.43
2018-12-21T01:06:41.162Z,9.32
2018-12-21T01:07:07.271Z,9.34
2018-12-21T01:07:33.371Z,9.32
2018-12-21T01:07:59.483Z,9.32
2018-12-21T01:08:25.582Z,9.34
2018-12-21T01:08:51.685Z,9.34
2018-12-21T01:09:17.791Z,9.34
2018-12-21T01:09:43.898Z,9.34
2018-12-21T01:10:10.012Z,9.36
2018-12-21T01:10:36.140Z,9.4
2018-12-21T01:11:02.248Z,9.31
2018-12-21T01:11:28.355Z,9.43
2018-12-21T01:11:54.458Z,9.5
2018-12-21T01:12:20.566Z,9.4
2018-12-21T01:12:46.674Z,9.41
2018-12-21T01:13:12.772Z,9.34
2018-12-21T01:13:38.916Z,9.39
2018-12-21T01:14:05.020Z,9.32
2018-12-21T01:14:31.120Z,9.39
2018-12-21T01:14:57.218Z,9.37
2018-12-21T01:15:23.338Z,9.32
2018-12-21T01:15:49.442Z,9.36
2018-12-21T01:16:15.575Z,9.34
2018-12-21T01:16:41.676Z,9.34
2018-12-21T01:17:07.790Z,9.4
2018-12-21T01:17:33.893Z,9.41
2018-12-21T01:18:00.004Z,9.43
2018-12-21T01:18:26.110Z,9.47
2018-12-21T01:18:52.244Z,9.44
2018-12-21T01:19:18.349Z,9.51
2018-12-21T01:19:44.480Z,9.43
2018-12-21T01:20:10.588Z,9.43
2018-12-21T01:20:36.691Z,9.41
2018-12-21T01:21:02.801Z,9.41
2018-12-21T01:21:28.928Z,9.31
2018-12-21T01:21:56.017Z,9.37
2018-12-21T01:22:22.133Z,9.39
2018-12-21T01:22:48.241Z,9.34
2018-12-21T01:23:14.376Z,9.39
2018-12-21T01:23:40.476Z,9.29
2018-12-21T01:24:06.585Z,9.41
2018-12-21T01:24:32.687Z,9.4
2018-12-21T01:24:58.797Z,9.41
2018-12-21T01:25:24.902Z,9.41
2018-12-21T01:25:51.009Z,9.39
2018-12-21T01:26:17.110Z,9.41
2018-12-21T01:26:43.216Z,9.37
2018-12-21T01:27:09.326Z,9.32
2018-12-21T01:27:35.433Z,9.34
2018-12-21T01:28:01.539Z,9.32
2018-12-21T01:28:27.906Z,9.4
2018-12-21T01:28:54.040Z,9.25
2018-12-21T01:29:20.138Z,9.44
2018-12-21T01:29:46.286Z,9.43
2018-12-21T01:30:12.392Z,9.44
2018-12-21T01:30:38.526Z,9.47
2018-12-21T01:31:04.659Z,9.47
2018-12-21T01:31:30.790Z,9.51
2018-12-21T01:31:56.900Z,9.44
2018-12-21T01:32:23.009Z,9.46
2018-12-21T01:32:49.114Z,9.54
2018-12-21T01:33:15.216Z,9.48
2018-12-21T01:33:41.323Z,9.44
2018-12-21T01:34:07.437Z,9.44
2018-12-21T01:34:33.539Z,9.46
2018-12-21T01:34:59.648Z,9.55
2018-12-21T01:35:25.758Z,9.47
2018-12-21T01:35:51.869Z,9.56
2018-12-21T01:36:17.977Z,9.51
2018-12-21T01:36:44.086Z,9.48
2018-12-21T01:37:10.189Z,9.56
2018-12-21T01:37:36.298Z,9.59
2018-12-21T01:38:02.400Z,9.54
2018-12-21T01:38:28.536Z,9.55
2018-12-21T01:38:54.643Z,9.54
2018-12-21T01:39:20.748Z,9.51
2018-12-21T01:39:46.855Z,9.47
2018-12-21T01:40:12.984Z,9.61
2018-12-21T01:40:39.095Z,9.59
2018-12-21T01:41:05.244Z,9.48
2018-12-21T01:41:31.349Z,9.55
2018-12-21T01:41:57.481Z,9.55
2018-12-21T01:42:23.592Z,9.59
2018-12-21T01:42:49.727Z,9.51
2018-12-21T01:43:15.825Z,9.62
2018-12-21T01:43:41.935Z,9.55
2018-12-21T01:44:08.039Z,9.51
2018-12-21T01:44:34.146Z,9.59
2018-12-21T01:45:00.246Z,9.56
2018-12-21T01:45:26.351Z,9.55
2018-12-21T01:45:52.458Z,9.56
2018-12-21T01:46:18.577Z,9.54
2018-12-21T01:46:44.680Z,9.58
2018-12-21T01:47:10.787Z,9.58
2018-12-21T01:47:36.891Z,9.55
2018-12-21T01:48:03.022Z,9.56
2018-12-21T01:48:29.122Z,9.59
2018-12-21T01:48:55.227Z,9.5
2018-12-21T01:49:21.328Z,9.51
2018-12-21T01:49:47.436Z,9.5
2018-12-21T01:50:13.555Z,9.55
2018-12-21T01:50:39.650Z,9.56
2018-12-21T01:51:05.757Z,9.46
2018-12-21T01:51:31.857Z,9.58
2018-12-21T01:51:58.954Z,9.56
2018-12-21T01:52:25.064Z,9.55
2018-12-21T01:52:51.171Z,9.5
2018-12-21T01:53:17.271Z,9.56
2018-12-21T01:53:43.382Z,9.59
2018-12-21T01:54:09.486Z,9.56
2018-12-21T01:54:35.592Z,9.62
2018-12-21T01:55:01.696Z,9.59
2018-12-21T01:55:27.799Z,9.56
2018-12-21T01:55:53.908Z,9.56
2018-12-21T01:56:20.010Z,9.61
2018-12-21T01:56:46.112Z,9.55
2018-12-21T01:57:12.247Z,9.5
2018-12-21T01:57:38.356Z,9.56
2018-12-21T01:58:04.459Z,9.61
2018-12-21T01:58:30.569Z,9.51
2018-12-21T01:58:56.699Z,9.56
2018-12-21T01:59:22.809Z,9.59
2018-12-21T01:59:48.938Z,9.56
2018-12-21T02:00:15.045Z,9.59
2018-12-21T02:00:41.148Z,9.58
2018-12-21T02:01:07.277Z,9.61
2018-12-21T02:01:33.390Z,9.55
2018-12-21T02:01:59.491Z,9.5
2018-12-21T02:02:25.599Z,9.51
2018-12-21T02:02:51.706Z,9.44
2018-12-21T02:03:17.812Z,9.51
2018-12-21T02:03:43.917Z,9.5
2018-12-21T02:04:10.061Z,9.48
2018-12-21T02:04:36.165Z,9.51
2018-12-21T02:05:02.270Z,9.47
2018-12-21T02:05:28.381Z,9.55
2018-12-21T02:05:54.487Z,9.51
2018-12-21T02:06:20.595Z,9.51
2018-12-21T02:06:46.702Z,9.47
2018-12-21T02:07:12.802Z,9.47
2018-12-21T02:07:38.904Z,9.47
2018-12-21T02:08:05.012Z,9.44
2018-12-21T02:08:31.139Z,9.5
2018-12-21T02:08:57.278Z,9.54
2018-12-21T02:09:23.419Z,9.48
2018-12-21T02:09:49.518Z,9.47
2018-12-21T02:10:15.622Z,9.48
2018-12-21T02:10:41.726Z,9.48
2018-12-21T02:11:07.841Z,9.51
2018-12-21T02:11:33.951Z,9.43
2018-12-21T02:12:00.085Z,9.54
2018-12-21T02:12:26.184Z,9.51
2018-12-21T02:12:52.319Z,9.58
2018-12-21T02:13:18.420Z,9.66
2018-12-21T02:13:44.532Z,9.61
2018-12-21T02:14:10.631Z,9.47
2018-12-21T02:14:36.741Z,9.5
2018-12-21T02:15:02.844Z,9.58
2018-12-21T02:15:28.961Z,9.51
2018-12-21T02:15:55.065Z,9.51
2018-12-21T02:16:21.200Z,9.61
2018-12-21T02:16:47.304Z,9.56
2018-12-21T02:17:13.443Z,9.55
2018-12-21T02:17:39.553Z,9.48
2018-12-21T02:18:05.651Z,9.5
2018-12-21T02:18:31.755Z,9.5
2018-12-21T02:18:57.895Z,9.51
2018-12-21T02:19:23.998Z,9.54
2018-12-21T02:19:50.101Z,9.56
2018-12-21T02:20:16.263Z,9.5
2018-12-21T02:20:42.367Z,9.56
2018-12-21T02:21:08.472Z,9.55
2018-12-21T02:21:34.577Z,9.64
2018-12-21T02:22:01.709Z,9.59
2018-12-21T02:22:27.810Z,9.55
2018-12-21T02:22:53.935Z,9.56
2018-12-21T02:23:20.043Z,9.55
2018-12-21T02:23:46.183Z,9.5
2018-12-21T02:24:12.285Z,9.48
2018-12-21T02:24:38.416Z,9.55
2018-12-21T02:25:04.516Z,9.58
2018-12-21T02:25:30.661Z,9.65
2018-12-21T02:25:56.764Z,9.59
2018-12-21T02:26:22.868Z,9.64
2018-12-21T02:26:49.022Z,9.58
2018-12-21T02:27:15.078Z,9.59
2018-12-21T02:27:41.191Z,9.64
2018-12-21T02:28:07.293Z,9.62
2018-12-21T02:28:33.409Z,9.64
2018-12-21T02:28:59.545Z,9.59
2018-12-21T02:29:25.656Z,9.54
2018-12-21T02:29:51.784Z,9.66
2018-12-21T02:30:17.883Z,9.66
2018-12-21T02:30:44.020Z,9.58
2018-12-21T02:31:10.151Z,9.55
2018-12-21T02:31:36.285Z,9.59
2018-12-21T02:32:02.422Z,9.56
2018-12-21T02:32:28.531Z,9.62
2018-12-21T02:32:54.643Z,9.59
2018-12-21T02:33:20.780Z,9.62
2018-12-21T02:33:46.920Z,9.58
2018-12-21T02:34:13.045Z,9.58
2018-12-21T02:34:39.153Z,9.59
2018-12-21T02:35:05.288Z,9.64
2018-12-21T02:35:31.422Z,9.66
2018-12-21T02:35:57.549Z,9.66
2018-12-21T02:36:23.708Z,9.64
2018-12-21T02:36:49.870Z,9.66
2018-12-21T02:37:15.974Z,9.66
2018-12-21T02:37:42.108Z,9.62
2018-12-21T02:38:08.219Z,9.74
2018-12-21T02:38:34.321Z,9.58
2018-12-21T02:39:00.432Z,9.65
2018-12-21T02:39:26.570Z,9.61
2018-12-21T02:39:52.706Z,9.59
2018-12-21T02:40:18.910Z,9.59
2018-12-21T02:40:45.042Z,9.61
2018-12-21T02:41:11.152Z,9.64
2018-12-21T02:41:37.253Z,9.58
2018-12-21T02:42:03.394Z,9.59
2018-12-21T02:42:29.497Z,9.56
2018-12-21T02:42:55.598Z,9.62
2018-12-21T02:43:21.703Z,9.58
2018-12-21T02:43:47.834Z,9.51
2018-12-21T02:44:13.938Z,9.72
2018-12-21T02:44:40.037Z,9.61
2018-12-21T02:45:06.147Z,9.64
2018-12-21T02:45:32.274Z,9.58
2018-12-21T02:45:58.400Z,9.65
2018-12-21T02:46:24.493Z,9.54
2018-12-21T02:46:50.629Z,9.55
2018-12-21T02:47:16.763Z,9.64
2018-12-21T02:47:42.866Z,9.64
2018-12-21T02:48:09.000Z,9.55
2018-12-21T02:48:35.108Z,9.64
2018-12-21T02:49:01.215Z,9.61
2018-12-21T02:49:27.321Z,9.61
2018-12-21T02:49:53.429Z,9.48
2018-12-21T02:50:19.611Z,9.59
2018-12-21T02:50:45.778Z,9.59
2018-12-21T02:51:11.885Z,9.61
2018-12-21T02:51:38.001Z,9.56
2018-12-21T02:52:05.787Z,9.55
2018-12-21T02:52:31.920Z,9.64
2018-12-21T02:52:58.057Z,9.55
2018-12-21T02:53:24.302Z,9.62
2018-12-21T02:53:50.347Z,9.61
2018-12-21T02:54:16.491Z,9.61
2018-12-21T02:54:42.606Z,9.54
2018-12-21T02:55:08.701Z,9.54
2018-12-21T02:55:34.807Z,9.59
2018-12-21T02:56:00.908Z,9.48
2018-12-21T02:56:27.044Z,9.56
2018-12-21T02:56:53.152Z,9.59
2018-12-21T02:57:19.284Z,9.61
2018-12-21T02:57:45.415Z,9.64
2018-12-21T02:58:11.526Z,9.58
2018-12-21T02:58:37.658Z,9.62
2018-12-21T02:59:03.764Z,9.62
2018-12-21T02:59:29.878Z,9.66
2018-12-21T02:59:55.985Z,9.66
2018-12-21T03:00:22.122Z,9.59
2018-12-21T03:00:48.263Z,9.62
2018-12-21T03:01:14.388Z,9.66
2018-12-21T03:01:40.522Z,9.62
2018-12-21T03:02:06.738Z,9.64
2018-12-21T03:02:32.879Z,9.66
2018-12-21T03:02:59.014Z,9.61
2018-12-21T03:03:25.147Z,9.66
2018-12-21T03:03:51.259Z,9.61
2018-12-21T03:04:17.394Z,9.62
2018-12-21T03:04:43.492Z,9.65
2018-12-21T03:05:09.606Z,9.62
2018-12-21T03:05:35.713Z,9.59
2018-12-21T03:06:01.811Z,9.69
2018-12-21T03:06:27.914Z,9.69
2018-12-21T03:06:54.025Z,9.77
2018-12-21T03:07:20.162Z,9.69
2018-12-21T03:07:46.295Z,9.66
2018-12-21T03:08:12.440Z,9.73
2018-12-21T03:08:38.643Z,9.8
2018-12-21T03:09:04.784Z,9.68
2018-12-21T03:09:30.958Z,9.76
2018-12-21T03:09:57.068Z,9.74
2018-12-21T03:10:23.171Z,9.77
2018-12-21T03:10:49.309Z,9.69
2018-12-21T03:11:15.447Z,9.76
2018-12-21T03:11:41.557Z,9.69
2018-12-21T03:12:07.662Z,9.82
2018-12-21T03:12:33.850Z,9.84
2018-12-21T03:12:59.954Z,9.86
2018-12-21T03:13:26.129Z,9.84
2018-12-21T03:13:52.260Z,9.79
2018-12-21T03:14:18.371Z,9.89
2018-12-21T03:14:44.478Z,9.83
2018-12-21T03:15:10.608Z,9.77
2018-12-21T03:15:36.711Z,9.79
2018-12-21T03:16:02.929Z,9.86
2018-12-21T03:16:29.024Z,9.98
2018-12-21T03:16:55.135Z,9.94
2018-12-21T03:17:21.243Z,9.83
2018-12-21T03:17:47.369Z,9.84
2018-12-21T03:18:13.477Z,9.84
2018-12-21T03:18:39.580Z,9.84
2018-12-21T03:19:05.722Z,9.87
2018-12-21T03:19:31.831Z,9.95
2018-12-21T03:19:57.962Z,9.97
2018-12-21T03:20:24.101Z,9.99
2018-12-21T03:20:50.234Z,9.98
2018-12-21T03:21:16.341Z,9.94
2018-12-21T03:21:42.503Z,9.98
2018-12-21T03:22:14.527Z,9.95
2018-12-21T03:22:35.741Z,9.99
2018-12-21T03:23:01.864Z,9.95
2018-12-21T03:23:27.974Z,10.02
2018-12-21T03:23:54.112Z,9.99
2018-12-21T03:24:20.214Z,9.99
2018-12-21T03:24:46.318Z,9.95
2018-12-21T03:25:12.454Z,9.98
2018-12-21T03:25:38.567Z,9.98
2018-12-21T03:26:04.672Z,10.02
2018-12-21T03:26:30.767Z,9.99
2018-12-21T03:26:56.905Z,9.94
2018-12-21T03:27:23.034Z,10.02
2018-12-21T03:27:49.135Z,9.92
2018-12-21T03:28:15.249Z,9.98
2018-12-21T03:28:41.383Z,9.98
2018-12-21T03:29:07.487Z,9.97
2018-12-21T03:29:33.614Z,9.95
2018-12-21T03:29:59.727Z,9.92
2018-12-21T03:30:25.855Z,9.97
2018-12-21T03:30:51.984Z,10.01
2018-12-21T03:31:18.229Z,9.97
2018-12-21T03:31:44.416Z,9.92
2018-12-21T03:32:10.715Z,9.98
2018-12-21T03:32:36.823Z,10.01
2018-12-21T03:33:03.008Z,9.97
2018-12-21T03:33:29.163Z,9.92
2018-12-21T03:33:55.361Z,9.95
2018-12-21T03:34:21.553Z,9.92
2018-12-21T03:34:47.721Z,9.99
2018-12-21T03:35:13.867Z,9.94
2018-12-21T03:35:39.995Z,9.95
2018-12-21T03:36:06.191Z,9.99
2018-12-21T03:36:32.325Z,9.99
2018-12-21T03:36:58.465Z,9.95
2018-12-21T03:37:24.599Z,9.97
2018-12-21T03:37:50.709Z,9.95
2018-12-21T03:38:16.814Z,10.01
2018-12-21T03:38:42.952Z,9.91
2018-12-21T03:39:09.044Z,9.92
2018-12-21T03:39:35.145Z,9.97
2018-12-21T03:40:01.255Z,9.91
2018-12-21T03:40:27.468Z,9.92
2018-12-21T03:40:53.607Z,9.87
2018-12-21T03:41:19.741Z,9.97
2018-12-21T03:41:45.854Z,9.79
2018-12-21T03:42:11.956Z,9.91
2018-12-21T03:42:38.094Z,9.87
2018-12-21T03:43:04.206Z,9.83
2018-12-21T03:43:30.308Z,9.79
2018-12-21T03:43:56.419Z,9.87
2018-12-21T03:44:22.519Z,9.83
2018-12-21T03:44:48.663Z,9.83
2018-12-21T03:45:14.772Z,9.74
2018-12-21T03:45:40.871Z,9.77
2018-12-21T03:46:06.972Z,9.86
2018-12-21T03:46:33.112Z,9.8
2018-12-21T03:46:59.213Z,9.86
2018-12-21T03:47:25.314Z,9.82
2018-12-21T03:47:51.417Z,9.84
2018-12-21T03:48:17.551Z,9.8
2018-12-21T03:48:43.702Z,9.87
2018-12-21T03:49:09.802Z,9.86
2018-12-21T03:49:35.937Z,9.76
2018-12-21T03:50:02.083Z,9.83
2018-12-21T03:50:28.214Z,9.87
2018-12-21T03:50:54.346Z,9.82
2018-12-21T03:51:20.458Z,9.84
2018-12-21T03:51:46.742Z,9.94
2018-12-21T03:52:12.682Z,9.92
2018-12-21T03:52:40.410Z,9.89
2018-12-21T03:53:06.543Z,9.83
2018-12-21T03:53:32.681Z,9.83
2018-12-21T03:53:58.884Z,9.83
2018-12-21T03:54:25.003Z,9.95
2018-12-21T03:54:51.138Z,9.97
2018-12-21T03:55:17.254Z,9.91
2018-12-21T03:55:43.356Z,9.87
2018-12-21T03:56:09.467Z,9.87
2018-12-21T03:56:35.570Z,9.83
2018-12-21T03:57:01.683Z,9.86
2018-12-21T03:57:27.810Z,9.87
2018-12-21T03:57:53.916Z,9.77
2018-12-21T03:58:20.018Z,9.77
2018-12-21T03:58:46.130Z,9.77
2018-12-21T03:59:12.261Z,9.83
2018-12-21T03:59:38.413Z,9.83
2018-12-21T04:00:04.581Z,9.82
2018-12-21T04:00:30.679Z,9.79
2018-12-21T04:00:56.850Z,9.77
2018-12-21T04:01:22.955Z,9.8
2018-12-21T04:01:49.112Z,9.72
2018-12-21T04:02:15.203Z,9.83
2018-12-21T04:02:41.873Z,9.77
2018-12-21T04:03:07.974Z,9.8
2018-12-21T04:03:34.093Z,9.83
2018-12-21T04:04:00.193Z,9.79
2018-12-21T04:04:26.300Z,9.72
2018-12-21T04:04:52.403Z,9.74
2018-12-21T04:05:18.549Z,9.76
2018-12-21T04:05:44.646Z,9.73
2018-12-21T04:06:10.794Z,9.72
2018-12-21T04:06:36.897Z,9.77
2018-12-21T04:07:03.004Z,9.8
2018-12-21T04:07:29.107Z,9.8
2018-12-21T04:07:55.218Z,9.79
2018-12-21T04:08:21.326Z,9.77
2018-12-21T04:08:47.483Z,9.8
2018-12-21T04:09:13.583Z,9.82
2018-12-21T04:09:39.716Z,9.77
2018-12-21T04:10:05.882Z,9.82
2018-12-21T04:10:32.021Z,9.83
2018-12-21T04:10:58.155Z,9.8
2018-12-21T04:11:24.290Z,9.82
2018-12-21T04:11:50.404Z,9.82
2018-12-21T04:12:16.560Z,9.73
2018-12-21T04:12:42.699Z,9.84
2018-12-21T04:13:08.859Z,9.77
2018-12-21T04:13:34.969Z,9.82
2018-12-21T04:14:01.121Z,9.79
2018-12-21T04:14:27.252Z,9.77
2018-12-21T04:14:53.413Z,9.8
2018-12-21T04:15:19.526Z,9.83
2018-12-21T04:15:45.678Z,9.82
2018-12-21T04:16:11.784Z,9.8
2018-12-21T04:16:37.894Z,9.84
2018-12-21T04:17:04.040Z,9.83
2018-12-21T04:17:30.136Z,9.83
2018-12-21T04:17:56.269Z,9.77
2018-12-21T04:18:22.377Z,9.74
2018-12-21T04:18:48.499Z,9.73
2018-12-21T04:19:14.606Z,9.86
2018-12-21T04:19:40.745Z,9.82
2018-12-21T04:20:06.847Z,9.86
2018-12-21T04:20:32.957Z,9.8
2018-12-21T04:20:59.057Z,9.83
2018-12-21T04:21:25.182Z,9.87
2018-12-21T04:21:51.291Z,9.86
2018-12-21T04:22:17.396Z,9.87
2018-12-21T04:22:43.606Z,9.86
2018-12-21T04:23:09.706Z,9.87
2018-12-21T04:23:35.818Z,9.86
2018-12-21T04:24:01.917Z,9.92
2018-12-21T04:24:28.023Z,9.91
2018-12-21T04:24:54.137Z,9.79
2018-12-21T04:25:20.272Z,9.82
2018-12-21T04:25:46.399Z,9.83
2018-12-21T04:26:12.532Z,9.86
2018-12-21T04:26:38.634Z,9.94
2018-12-21T04:27:04.770Z,9.84
2018-12-21T04:27:30.904Z,9.86
2018-12-21T04:27:57.040Z,9.84
2018-12-21T04:28:23.153Z,9.86
2018-12-21T04:28:49.283Z,9.91
2018-12-21T04:29:15.447Z,9.92
2018-12-21T04:29:41.556Z,9.95
2018-12-21T04:30:07.682Z,9.95
2018-12-21T04:30:33.812Z,9.89
2018-12-21T04:30:59.921Z,9.95
2018-12-21T04:31:26.017Z,9.91
2018-12-21T04:31:52.157Z,9.94
2018-12-21T04:32:18.273Z,9.83
2018-12-21T04:32:44.425Z,9.92
2018-12-21T04:33:10.563Z,9.94
2018-12-21T04:33:36.692Z,9.94
2018-12-21T04:34:02.799Z,9.77
2018-12-21T04:34:28.896Z,9.84
2018-12-21T04:34:55.064Z,9.95
2018-12-21T04:35:21.183Z,9.89
2018-12-21T04:35:47.276Z,9.8
2018-12-21T04:36:13.392Z,9.86
2018-12-21T04:36:39.487Z,9.79
2018-12-21T04:37:05.605Z,9.82
2018-12-21T04:37:31.699Z,9.82
2018-12-21T04:37:57.842Z,9.92
2018-12-21T04:38:23.961Z,9.86
2018-12-21T04:38:50.123Z,9.87
2018-12-21T04:39:16.230Z,9.94
2018-12-21T04:39:42.336Z,9.83
2018-12-21T04:40:08.478Z,9.83
2018-12-21T04:40:34.572Z,9.82
2018-12-21T04:41:00.763Z,9.84
2018-12-21T04:41:26.876Z,9.83
2018-12-21T04:41:53.004Z,9.92
2018-12-21T04:42:19.109Z,9.83
2018-12-21T04:42:45.240Z,9.84
2018-12-21T04:43:11.392Z,9.83
2018-12-21T04:43:37.474Z,9.92
2018-12-21T04:44:03.591Z,9.91
2018-12-21T04:44:29.699Z,9.95
2018-12-21T04:44:55.797Z,9.87
2018-12-21T04:45:21.932Z,9.94
2018-12-21T04:45:48.092Z,9.95
2018-12-21T04:46:14.196Z,9.97
2018-12-21T04:46:40.330Z,9.95
2018-12-21T04:47:06.432Z,9.97
2018-12-21T04:47:32.542Z,9.99
2018-12-21T04:47:58.670Z,10.02
2018-12-21T04:48:24.771Z,9.97
2018-12-21T04:48:50.914Z,9.97
2018-12-21T04:49:17.048Z,10.05
2018-12-21T04:49:43.235Z,10.02
2018-12-21T04:50:09.335Z,10.09
2018-12-21T04:50:35.441Z,10.09
2018-12-21T04:51:01.583Z,10.07
2018-12-21T04:51:27.689Z,10.04
2018-12-21T04:51:53.829Z,10.12
2018-12-21T04:52:19.934Z,10.04
2018-12-21T04:52:47.054Z,9.98
2018-12-21T04:53:13.157Z,10.09
2018-12-21T04:53:39.260Z,9.98
2018-12-21T04:54:05.390Z,9.99
2018-12-21T04:54:31.607Z,10.02
2018-12-21T04:54:57.707Z,10.04
2018-12-21T04:55:23.813Z,10.07
2018-12-21T04:55:49.918Z,10.02
2018-12-21T04:56:16.026Z,10.1
2018-12-21T04:56:42.157Z,10.07
2018-12-21T04:57:08.352Z,10.13
2018-12-21T04:57:34.479Z,10.05
2018-12-21T04:58:00.607Z,9.99
2018-12-21T04:58:26.739Z,10.12
2018-12-21T04:58:52.850Z,10.13
2018-12-21T04:59:19.983Z,10.13
2018-12-21T04:59:46.085Z,10.09
2018-12-21T05:00:12.226Z,10.04
2018-12-21T05:00:38.352Z,10.09
2018-12-21T05:01:04.499Z,10.13
2018-12-21T05:01:30.603Z,10.12
2018-12-21T05:01:56.710Z,10.15
2018-12-21T05:02:22.815Z,10.09
2018-12-21T05:02:48.923Z,10.09
2018-12-21T05:03:15.086Z,9.97
2018-12-21T05:03:41.225Z,10.02
2018-12-21T05:04:07.333Z,9.95
2018-12-21T05:04:35.417Z,9.99
2018-12-21T05:05:01.599Z,9.99
2018-12-21T05:05:27.650Z,9.95
2018-12-21T05:05:54.739Z,9.95
2018-12-21T05:06:20.851Z,10.02
2018-12-21T05:06:46.953Z,9.98
2018-12-21T05:07:13.088Z,10.01
2018-12-21T05:07:39.196Z,9.98
2018-12-21T05:08:05.331Z,9.97
2018-12-21T05:08:31.433Z,9.94
2018-12-21T05:08:57.561Z,9.97
2018-12-21T05:09:23.692Z,10.07
2018-12-21T05:09:49.797Z,10.09
2018-12-21T05:10:15.907Z,10.04
2018-12-21T05:10:42.012Z,9.98
2018-12-21T05:11:08.192Z,10.09
2018-12-21T05:11:34.310Z,10.13
2018-12-21T05:12:00.447Z,10.16
2018-12-21T05:12:26.574Z,10.09
2018-12-21T05:12:52.683Z,10.2
2018-12-21T05:13:18.813Z,10.16
2018-12-21T05:13:44.913Z,10.19
2018-12-21T05:14:12.013Z,10.19
2018-12-21T05:14:38.120Z,10.1
2018-12-21T05:15:04.229Z,10.2
2018-12-21T05:15:30.336Z,10.15
2018-12-21T05:15:56.458Z,10.16
2018-12-21T05:16:22.606Z,10.2
2018-12-21T05:16:48.712Z,10.15
2018-12-21T05:17:14.825Z,10.15
2018-12-21T05:17:40.956Z,10.07
2018-12-21T05:18:07.067Z,10.15
2018-12-21T05:18:33.511Z,10.16
2018-12-21T05:19:00.106Z,10.17
2018-12-21T05:19:26.245Z,10.1
2018-12-21T05:19:52.352Z,10.16
2018-12-21T05:20:18.517Z,10.09
2018-12-21T05:20:44.621Z,10.13
2018-12-21T05:21:10.724Z,10.13
2018-12-21T05:21:36.862Z,10.16
2018-12-21T05:22:02.997Z,10.15
2018-12-21T05:22:29.098Z,10.12
2018-12-21T05:22:56.222Z,10.04
2018-12-21T05:23:22.335Z,10.09
2018-12-21T05:23:48.441Z,10.19
2018-12-21T05:24:14.565Z,10.16
2018-12-21T05:24:40.693Z,10.1
2018-12-21T05:25:06.806Z,10.16
2018-12-21T05:25:32.909Z,10.17
2018-12-21T05:25:59.009Z,10.02
2018-12-21T05:26:25.153Z,10.23
2018-12-21T05:26:51.267Z,10.12
2018-12-21T05:27:17.399Z,10.16
2018-12-21T05:27:43.501Z,10.1
2018-12-21T05:28:09.613Z,10.07
2018-12-21T05:28:35.745Z,10.13
2018-12-21T05:29:01.855Z,10.1
2018-12-21T05:29:27.959Z,10.15
2018-12-21T05:29:55.057Z,10.15
2018-12-21T05:30:21.155Z,10.22
2018-12-21T05:30:47.269Z,10.25
2018-12-21T05:31:13.377Z,10.23
2018-12-21T05:31:40.478Z,10.2
2018-12-21T05:32:06.575Z,10.23
2018-12-21T05:32:32.708Z,10.22
2018-12-21T05:32:58.845Z,10.22
2018-12-21T05:33:24.956Z,10.33
2018-12-21T05:33:51.079Z,10.3
2018-12-21T05:34:17.189Z,10.28
2018-12-21T05:34:43.287Z,10.33
2018-12-21T05:35:10.384Z,10.28
2018-12-21T05:35:36.485Z,10.2
2018-12-21T05:36:02.588Z,10.22
2018-12-21T05:36:28.756Z,10.28
2018-12-21T05:36:54.886Z,10.3
2018-12-21T05:37:20.991Z,10.26
2018-12-21T05:37:47.116Z,10.23
2018-12-21T05:38:13.251Z,10.16
2018-12-21T05:38:39.357Z,10.16
2018-12-21T05:39:05.461Z,10.17
2018-12-21T05:39:31.565Z,10.22
2018-12-21T05:39:57.706Z,10.23
2018-12-21T05:40:23.809Z,10.3
2018-12-21T05:40:49.941Z,10.3
2018-12-21T05:41:16.078Z,10.19
2018-12-21T05:41:42.181Z,10.16
2018-12-21T05:42:08.285Z,10.2
2018-12-21T05:42:34.399Z,10.2
2018-12-21T05:43:00.506Z,10.15
2018-12-21T05:43:26.620Z,10.1
2018-12-21T05:43:52.723Z,10.22
2018-12-21T05:44:18.830Z,10.17
2018-12-21T05:44:44.928Z,10.13
2018-12-21T05:45:11.034Z,10.04
2018-12-21T05:45:37.139Z,10.07
2018-12-21T05:46:03.269Z,10.09
2018-12-21T05:46:29.395Z,10.05
2018-12-21T05:46:55.504Z,10.15
2018-12-21T05:47:21.603Z,10.05